Randall, Minnesota
Current Conditions -  °F | °C
As of 4:57 PM on Thursday 23 Oct 2014 (Local Time) from KLXL Reporting Station
Clear Clear  
Wind Chill: 66°   Ceiling: Unl
Heat Index: 66°   Visibility: 10mi
Dew Point: 32°   Wind: 6mph
Humidity: 28%   Direction: 240°WSW
Pressure: 29.93"   Gusts: NA
Location:  46.09°N, 94.5°W
Report Text: KLXL 232157Z AUTO 24005KT 10SM CLR 19/00 A2993 RMK AO2
Loading
Personal Weather Stations






























Interactive Weather Map
Tropical Storm Tracking
New forecast layout! Learn more

10-Day Weather Forecast

Advertisements
Track Severe Weather on mobile